Nearby METAR Reports

 

KBED - Bedford, Massachusetts, USA
Distance from station: W 5mi, 9km
Updated: Fri, 19-Apr-2019 11:56pm EDT
Overcast
Overcast
 Wind from S
Wind: S 14 mph , 22 km/h, Gust: 25 mph , 41 km/h
Temperature: 70°F , 21°C
Dew Point: 63°F , 17°C
Humidity: 78%
Barometer: 1008.5 hPa
Clouds: Overcast
Visibility: 8 miles , 13 km
Cloud details: Overcast 1500 ft
2019/04/20 03:56 KBED 200356Z AUTO 19012G22KT 8SM OVC015 21/17 A2978 RMK AO2 SLP095 T02060167
KBOS - Boston, Massachusetts, USA
Distance from station: SE 11mi, 18km
Updated: Fri, 19-Apr-2019 11:54pm EDT
Overcast
Overcast
 Wind from S
Wind: S 21 mph , 33 km/h
Temperature: 66°F , 19°C
Dew Point: 61°F , 16°C
Humidity: 83%
Barometer: 1009.5 hPa
Clouds: Overcast
Visibility: 9 miles , 14 km
Cloud details: Overcast 1100 ft
2019/04/20 03:54 KBOS 200354Z 19018KT 9SM OVC011 19/16 A2981 RMK AO2 SLP093 T01890161
 
KBVY - Beverly, Massachusetts, USA
Distance from station: ENE 17mi, 27km
Updated: Fri, 19-Apr-2019 11:53pm EDT
Overcast
Overcast
 Wind from S
Wind: S 15 mph , 24 km/h, Gust: 24 mph , 39 km/h
Temperature: 66°F , 19°C
Dew Point: 61°F , 16°C
Humidity: 83%
Barometer: 1009.1 hPa
Clouds: Overcast
Visibility: 9 miles , 14 km
Cloud details: Overcast 1100 ft
2019/04/20 03:53 KBVY 200353Z AUTO 19013G21KT 9SM OVC011 19/16 A2980 RMK AO2 SLP084 T01890161
KMQE - East Milton, Massachusetts, USA
Distance from station: SSE 17mi, 28km
Updated: Fri, 19-Apr-2019 11:56pm EDT

 Wind from S
Wind: S 31 mph , 50 km/h, Gust: 40 mph , 65 km/h
Temperature: 63°F , 17°C
Dew Point: 63°F , 17°C
Humidity: 100%
Barometer: 1009.1 hPa
2019/04/20 03:56 KMQE 200356Z AUTO 18027G35KT 17/17 A2980 RMK AO1 PK WND 19036/0319 SLP098 T01670167
 
KLWM - Lawrence, Massachusetts, USA
Distance from station: N 18mi, 29km
Updated: Fri, 19-Apr-2019 11:54pm EDT
Overcast
Overcast
 Wind from varies
Wind: varies 7 mph , 11 km/h, Gust: 20 mph , 31 km/h
Temperature: 66°F , 19°C
Dew Point: 63°F , 17°C
Humidity: 88%
Barometer: 1009.1 hPa
Clouds: Overcast
Visibility: 10 miles , 16 km
Cloud details: Overcast 1600 ft
2019/04/20 03:54 KLWM 200354Z AUTO VRB06G17KT 10SM OVC016 19/17 A2980 RMK AO2 SLP091 T01940167
KOWD - Norwood, Massachusetts, USA
Distance from station: S 19mi, 31km
Updated: Sat, 20-Apr-2019 12:11am EDT
Light rain, Overcast
Light rain, Overcast
 Wind from S
Wind: S 14 mph , 22 km/h, Gust: 22 mph , 35 km/h
Temperature: 66°F , 19°C
Dew Point: 61°F , 16°C
Humidity: 83%
Barometer: 1009.5 hPa
Summary: Light rain
Clouds: Overcast
Visibility: 6 miles , 10 km
Cloud details: Overcast 1100 ft
2019/04/20 04:11 KOWD 200411Z AUTO 19012G19KT 6SM -RA OVC011 19/16 A2981 RMK AO2 RAB09 P0000 T01940161 TSNO
 
KASH - Nashua/Boire Fld, New Hampshire, USA
Distance from station: NW 28mi, 45km
Updated: Fri, 19-Apr-2019 11:56pm EDT

 Wind from varies
Wind: varies 6 mph , 9 km/h
Temperature: 66°F , 19°C
Dew Point: 66°F , 19°C
Humidity: 100%
Barometer: 1008.1 hPa
Visibility: 10 miles , 16 km
2019/04/20 03:56 KASH 200356Z AUTO VRB05KT 10SM 19/19 A2977 RMK AO2 RAE07 SLP089 P0000 T01940189 $
KFIT - Fitchburg, Massachusetts, USA
Distance from station: WNW 29mi, 47km
Updated: Fri, 19-Apr-2019 11:52pm EDT
Overcast
Overcast
 Wind from SSE
Wind: SSE 8 mph , 13 km/h
Temperature: 66°F , 19°C
Dew Point: 63°F , 17°C
Humidity: 88%
Barometer: 1008.5 hPa
Clouds: Overcast
Visibility: 10 miles , 16 km
Cloud details: Few Clouds 1200 ft
Mostly cloudy 2100 ft
Overcast 3000 ft
2019/04/20 03:52 KFIT 200352Z AUTO 16007KT 10SM FEW012 BKN021 OVC030 19/17 A2978 RMK AO2 RAB14E39 SLP081 P0000 T01890167
 
KMHT - Manchester, New Hampshire, USA
Distance from station: NNW 35mi, 56km
Updated: Fri, 19-Apr-2019 11:53pm EDT
Overcast
Overcast
 Wind from S
Wind: S 16 mph , 26 km/h, Gust: 22 mph , 35 km/h
Temperature: 68°F , 20°C
Dew Point: 63°F , 17°C
Humidity: 83%
Barometer: 1007.5 hPa
Clouds: Overcast
Visibility: 10 miles , 16 km
Cloud details: Mostly cloudy 1900 ft
Overcast 3100 ft
2019/04/20 03:53 KMHT 200353Z 18014G19KT 10SM BKN019 OVC031 20/17 A2975 RMK AO2 SLP084 T02000167
KGHG - Marshfield, Massachusetts, USA
Distance from station: SE 37mi, 59km
Updated: Sat, 20-Apr-2019 12:15am EDT
Overcast
Overcast
 Wind from SSW
Wind: SSW 25 mph , 41 km/h, Gust: 38 mph , 61 km/h
Temperature: 68°F , 20°C
Dew Point: 64°F , 18°C
Humidity: 88%
Barometer: 1010.2 hPa
Clouds: Overcast
Visibility: 9 miles , 14 km
Cloud details: Overcast 1400 ft
2019/04/20 04:15 KGHG 200415Z AUTO 20022G33KT 9SM OVC014 20/18 A2983 RMK AO2
 
KORH - Worcester, Massachusetts, USA
Distance from station: WSW 37mi, 59km
Updated: Fri, 19-Apr-2019 11:54pm EDT
Light rain, Mist, Overcast
Light rain, Mist, Overcast
 Wind from S
Wind: S 17 mph , 28 km/h, Gust: 28 mph , 44 km/h
Temperature: 63°F , 17°C
Dew Point: 63°F , 17°C
Humidity: 100%
Barometer: 1008.8 hPa
Summary: Light rain, Mist
Clouds: Overcast
Visibility: 6 miles , 10 km
Cloud details: Overcast 500 ft
2019/04/20 03:54 KORH 200354Z 19015G24KT 6SM -RA BR OVC005 17/17 A2979 RMK AO2 SLP085 P0004 T01720167
KSFZ - Pawtucket, Rhode Island, USA
Distance from station: SSW 41mi, 65km
Updated: Fri, 19-Apr-2019 11:56pm EDT
Light rain, Mist, Overcast
Light rain, Mist, Overcast
 Wind from SSW
Wind: SSW 9 mph , 15 km/h, Gust: 21 mph , 33 km/h
Temperature: 64°F , 18°C
Dew Point: 63°F , 17°C
Humidity: 94%
Barometer: 1009.8 hPa
Summary: Light rain, Mist
Clouds: Overcast
Visibility: 6 miles , 10 km
Cloud details: Overcast 800 ft
2019/04/20 03:56 KSFZ 200356Z AUTO 21008G18KT 150V240 6SM -RA BR OVC008 18/17 A2982 RMK AO2 RAB03 SLP045 P0001 T01780172
 
KTAN - Taunton, Massachusetts, USA
Distance from station: SSE 41mi, 66km
Updated: Sat, 20-Apr-2019 12:00am EDT
Light rain, Mist, Overcast
Light rain, Mist, Overcast
 Wind from S
Wind: S 17 mph , 28 km/h, Gust: 30 mph , 48 km/h
Temperature: 66°F , 19°C
Dew Point: 63°F , 17°C
Humidity: 88%
Barometer: 1010.5 hPa
Summary: Light rain, Mist
Clouds: Overcast
Visibility: 4 miles , 6 km
Cloud details: Overcast 1400 ft
2019/04/20 04:00 KTAN 200400Z AUTO 18015G26KT 150V210 4SM -RA BR OVC014 19/17 A2984 RMK AO2 PK WND 17026/0400 P0001 T01940172
KPYM - Plymouth, Massachusetts, USA
Distance from station: SSE 44mi, 71km
Updated: Fri, 19-Apr-2019 11:52pm EDT
Overcast
Overcast
 Wind from SSW
Wind: SSW 14 mph , 22 km/h, Gust: 26 mph , 43 km/h
Temperature: 64°F , 18°C
Dew Point: 61°F , 16°C
Humidity: 88%
Barometer: 1011.2 hPa
Clouds: Overcast
Visibility: 7 miles , 11 km
Cloud details: Overcast 700 ft
2019/04/20 03:52 KPYM 200352Z AUTO 21012G23KT 7SM OVC007 18/16 A2986 RMK AO2 PK WND 20031/0313 SLP109 T01780161
 
KPSM - Portsmouth/Pease, New Hampshire, USA
Distance from station: NNE 46mi, 74km
Updated: Fri, 19-Apr-2019 11:56pm EDT
Overcast
Overcast
 Wind from S
Wind: S 14 mph , 22 km/h, Gust: 23 mph , 37 km/h
Temperature: 68°F , 20°C
Dew Point: 63°F , 17°C
Humidity: 83%
Barometer: 1007.8 hPa
Clouds: Overcast
Visibility: 7 miles , 11 km
Cloud details: Mostly cloudy 1900 ft
Mostly cloudy 2400 ft
Overcast 9500 ft
2019/04/20 03:56 KPSM 200356Z 19012G20KT 7SM BKN019 BKN024 OVC095 20/17 A2976 RMK AO2A SLP079 T02010165
KAFN - Jaffrey, New Hampshire, USA
Distance from station: WNW 47mi, 76km
Updated: Sat, 20-Apr-2019 12:14am EDT
Rain, Mist, Overcast
Rain, Mist, Overcast
 Wind from S
Wind: S 9 mph , 15 km/h, Gust: 21 mph , 33 km/h
Temperature: 64°F , 18°C
Dew Point: 63°F , 17°C
Humidity: 94%
Barometer: 1007.5 hPa
Summary: Rain, Mist
Clouds: Overcast
Visibility: 2 1/2 miles , 4 km
Cloud details: Partly cloudy 1000 ft
Mostly cloudy 1600 ft
Overcast 3100 ft
2019/04/20 04:14 KAFN 200414Z AUTO 17008G18KT 2 1/2SM RA BR SCT010 BKN016 OVC031 18/17 A2975 RMK AO2 P0007 T01830167